Time;durP1;ratioP1;P1;durP2;ratioP2;P2;SDS_P1;SDS_P2;PMS_P1;PMS_P2;Temp;Humidity;BMP_temperature;BMP_pressure;BME280_temperature;BME280_humidity;BME280_pressure;Samples;Min_cycle;Max_cycle;Signal;HPM_P1;HPM_P2
2022/05/08 00:00:42;;;;;;;3.75;2.65;;;16.40;50.60;;;;;;5053028;28;20032;-74
2022/05/08 00:03:09;;;;;;;3.22;2.30;;;16.40;50.60;;;;;;5071240;28;20380;-74
2022/05/08 00:05:35;;;;;;;3.92;2.67;;;16.40;50.70;;;;;;5052737;28;20028;-74
2022/05/08 00:08:01;;;;;;;3.50;2.67;;;16.40;50.80;;;;;;5051338;28;20060;-73
2022/05/08 00:10:27;;;;;;;2.92;2.63;;;16.30;50.70;;;;;;5063709;28;20116;-74
2022/05/08 00:12:53;;;;;;;3.55;2.63;;;16.30;50.70;;;;;;5041360;28;20029;-74
2022/05/08 00:15:18;;;;;;;3.55;2.75;;;16.30;50.80;;;;;;5043687;28;20099;-73
2022/05/08 00:17:44;;;;;;;3.15;2.63;;;16.30;50.90;;;;;;5045765;28;20106;-74
2022/05/08 00:20:11;;;;;;;2.75;2.40;;;16.30;51.00;;;;;;5059755;28;20057;-73
2022/05/08 00:22:45;;;;;;;6.13;2.70;;;16.30;51.10;;;;;;5045680;28;20033;-74
2022/05/08 00:25:12;;;;;;;4.63;3.10;;;16.20;51.60;;;;;;5041764;28;20446;-73
2022/05/08 00:27:38;;;;;;;5.13;3.03;;;16.20;51.10;;;;;;5042674;28;20468;-74
2022/05/08 00:30:06;;;;;;;4.05;2.85;;;16.20;51.20;;;;;;5056820;28;20184;-73
2022/05/08 00:32:32;;;;;;;4.35;2.75;;;16.10;51.00;;;;;;5052439;28;20036;-74
2022/05/08 00:34:57;;;;;;;3.30;2.80;;;16.10;51.60;;;;;;5043675;28;20376;-73
2022/05/08 00:37:23;;;;;;;4.78;2.88;;;16.10;51.20;;;;;;5042387;28;20041;-74
2022/05/08 00:39:49;;;;;;;4.78;2.63;;;16.10;51.30;;;;;;5044660;28;20515;-73
2022/05/08 00:42:18;;;;;;;3.25;2.95;;;16.00;51.20;;;;;;5042513;28;20033;-73
2022/05/08 00:44:44;;;;;;;8.50;3.60;;;16.10;51.40;;;;;;5045309;28;20029;-74
2022/05/08 00:47:09;;;;;;;4.30;2.97;;;16.00;51.40;;;;;;5047169;28;20029;-74
2022/05/08 00:49:36;;;;;;;3.55;2.35;;;16.00;51.50;;;;;;5054252;28;20037;-73
2022/05/08 00:52:04;;;;;;;4.32;3.42;;;15.90;51.40;;;;;;5045612;28;20037;-73
2022/05/08 00:54:31;;;;;;;4.38;2.95;;;15.90;51.50;;;;;;5065161;28;20374;-74
2022/05/08 00:56:57;;;;;;;4.55;2.95;;;15.90;51.50;;;;;;5059016;28;20072;-72
2022/05/08 00:59:24;;;;;;;4.97;3.25;;;15.90;51.60;;;;;;5061556;28;20071;-74
2022/05/08 01:01:50;;;;;;;3.58;2.88;;;15.90;51.70;;;;;;5065302;28;20064;-73
2022/05/08 01:04:16;;;;;;;4.00;3.17;;;15.90;51.80;;;;;;5054360;28;20455;-72
2022/05/08 01:06:44;;;;;;;5.22;3.65;;;15.80;51.60;;;;;;5049015;28;20168;-73
2022/05/08 01:09:11;;;;;;;4.10;3.40;;;15.80;51.70;;;;;;5063955;28;20672;-73
2022/05/08 01:11:37;;;;;;;3.45;3.15;;;15.80;51.80;;;;;;5057847;28;20060;-73
2022/05/08 01:14:03;;;;;;;5.57;3.58;;;15.80;51.90;;;;;;5044658;28;20497;-73
2022/05/08 01:16:29;;;;;;;3.65;3.30;;;15.80;51.90;;;;;;5045808;28;20029;-74
2022/05/08 01:18:55;;;;;;;3.25;2.95;;;15.80;52.00;;;;;;5060830;28;20072;-73
2022/05/08 01:21:33;;;;;;;3.60;3.05;;;15.80;52.10;;;;;;5053641;28;20040;-73
2022/05/08 01:23:59;;;;;;;4.03;3.50;;;15.80;52.20;;;;;;5060600;28;20714;-73
2022/05/08 01:26:25;;;;;;;4.47;3.60;;;15.80;52.10;;;;;;5045265;28;20628;-73
2022/05/08 01:28:51;;;;;;;4.50;3.42;;;15.70;52.00;;;;;;5055635;28;20487;-72
2022/05/08 01:31:17;;;;;;;4.68;3.63;;;15.70;52.10;;;;;;5051863;28;20029;-72
2022/05/08 01:33:44;;;;;;;4.88;3.55;;;15.70;52.10;;;;;;5055757;28;20040;-73
2022/05/08 01:36:10;;;;;;;4.97;4.45;;;15.70;52.80;;;;;;5044070;28;20069;-73
2022/05/08 01:38:36;;;;;;;4.65;4.03;;;15.70;52.30;;;;;;5071530;28;20057;-73
2022/05/08 01:41:04;;;;;;;4.47;3.95;;;15.70;52.40;;;;;;5049845;28;20025;-72
2022/05/08 01:43:37;;;;;;;4.82;3.75;;;15.70;52.50;;;;;;5044103;28;20164;-72
2022/05/08 01:46:06;;;;;;;4.38;3.97;;;15.70;52.50;;;;;;5070766;22;20060;-75
2022/05/08 01:48:33;;;;;;;5.47;4.00;;;15.70;52.60;;;;;;5067852;28;20041;-76
2022/05/08 01:51:01;;;;;;;5.35;4.22;;;15.60;52.40;;;;;;5069353;28;20042;-76
2022/05/08 01:53:29;;;;;;;4.80;3.35;;;15.60;52.50;;;;;;5069328;28;20039;-75
2022/05/08 01:55:56;;;;;;;5.63;4.32;;;15.60;53.20;;;;;;5069628;28;20028;-75
2022/05/08 01:58:24;;;;;;;4.60;3.75;;;15.60;52.70;;;;;;5051396;28;20513;-75
2022/05/08 02:00:51;;;;;;;7.10;4.30;;;15.60;52.80;;;;;;5051664;28;20047;-76
2022/05/08 02:03:19;;;;;;;5.75;3.95;;;15.50;52.70;;;;;;5051827;28;20035;-75
2022/05/08 02:05:45;;;;;;;6.68;4.82;;;15.50;52.70;;;;;;5051445;28;20067;-75
2022/05/08 02:08:11;;;;;;;4.90;4.45;;;15.50;52.80;;;;;;5067692;28;20033;-75
2022/05/08 02:10:38;;;;;;;7.38;4.70;;;15.50;52.80;;;;;;5018744;28;20123;-75
2022/05/08 02:13:07;;;;;;;6.35;4.65;;;15.50;52.90;;;;;;5067116;28;20464;-76
2022/05/08 02:15:33;;;;;;;6.50;4.50;;;15.50;53.00;;;;;;5051920;28;20032;-76
2022/05/08 02:18:06;;;;;;;4.15;3.72;;;15.50;53.10;;;;;;5051351;28;20127;-76
2022/05/08 02:20:32;;;;;;;6.45;4.20;;;15.50;53.20;;;;;;5051544;28;20036;-76
2022/05/08 02:22:59;;;;;;;5.75;5.15;;;15.40;53.00;;;;;;5068760;28;20063;-76
2022/05/08 02:25:26;;;;;;;4.68;3.80;;;15.40;53.00;;;;;;5069937;28;20116;-76
2022/05/08 02:27:52;;;;;;;4.50;4.07;;;15.40;53.10;;;;;;5068625;28;20159;-76
2022/05/08 02:30:22;;;;;;;4.53;4.13;;;15.40;53.20;;;;;;5082764;28;20032;-76
2022/05/08 02:32:51;;;;;;;6.40;4.88;;;15.40;53.20;;;;;;5076507;28;20027;-75
2022/05/08 02:35:20;;;;;;;5.32;4.78;;;15.40;53.30;;;;;;5032694;28;20388;-76
2022/05/08 02:40:22;;;;;;;4.70;4.30;;;15.30;53.20;;;;;;4990273;28;20099;-76
2022/05/08 02:42:48;;;;;;;4.53;4.13;;;15.30;53.30;;;;;;5006774;28;20454;-76
2022/05/08 02:45:14;;;;;;;6.35;4.93;;;15.30;53.30;;;;;;5010928;28;20033;-76
2022/05/08 02:47:44;;;;;;;4.68;4.22;;;15.30;53.40;;;;;;5014114;28;20320;-75
2022/05/08 02:50:11;;;;;;;5.38;4.60;;;15.30;53.40;;;;;;5009051;28;20441;-75
2022/05/08 02:52:38;;;;;;;5.90;4.38;;;15.30;53.50;;;;;;5008714;28;20401;-76
2022/05/08 03:00:38;;;;;;;4.93;4.18;;;15.20;53.50;;;;;;4985158;28;20044;-76
2022/05/08 03:03:06;;;;;;;7.43;5.03;;;15.20;53.50;;;;;;5012108;28;20097;-77
2022/05/08 03:05:32;;;;;;;6.63;4.97;;;15.20;53.60;;;;;;4994900;28;20026;-76
2022/05/08 03:07:58;;;;;;;6.50;5.50;;;15.10;53.60;;;;;;5011650;28;20029;-76
2022/05/08 03:10:24;;;;;;;6.00;4.65;;;15.10;53.60;;;;;;5014463;28;20030;-76
2022/05/08 03:12:53;;;;;;;4.97;4.47;;;15.10;53.70;;;;;;5014157;28;20052;-77
2022/05/08 03:15:19;;;;;;;6.15;4.90;;;15.10;53.80;;;;;;5012388;28;20044;-77
2022/05/08 03:17:46;;;;;;;5.13;4.63;;;15.10;53.80;;;;;;5011497;28;20050;-76
2022/05/08 03:20:12;;;;;;;7.60;4.55;;;15.00;53.70;;;;;;5019832;28;20029;-76
2022/05/08 03:22:38;;;;;;;8.88;5.50;;;15.00;53.80;;;;;;5014760;28;20534;-75
2022/05/08 03:25:04;;;;;;;5.25;4.50;;;15.00;53.80;;;;;;5011551;28;20053;-77
2022/05/08 03:27:30;;;;;;;7.82;5.05;;;15.00;53.90;;;;;;5009872;28;20061;-76
2022/05/08 03:29:58;;;;;;;5.15;4.60;;;15.00;54.00;;;;;;5010151;28;20033;-76
2022/05/08 03:32:23;;;;;;;5.68;4.80;;;15.00;54.10;;;;;;5010322;28;20051;-77
2022/05/08 03:34:49;;;;;;;6.18;4.63;;;15.00;54.10;;;;;;5010423;28;20512;-76
2022/05/08 03:37:15;;;;;;;6.80;5.63;;;14.90;54.00;;;;;;5008042;28;20041;-77
2022/05/08 03:39:41;;;;;;;5.35;4.85;;;14.90;54.00;;;;;;5024702;28;20050;-76
2022/05/08 03:42:07;;;;;;;7.28;5.50;;;14.90;54.10;;;;;;5028493;28;20025;-76
2022/05/08 03:44:33;;;;;;;7.10;5.53;;;14.90;54.20;;;;;;5024837;28;20057;-77
2022/05/08 03:46:59;;;;;;;6.32;5.10;;;14.80;54.00;;;;;;5026524;28;20192;-76
2022/05/08 03:49:25;;;;;;;5.43;4.65;;;14.80;54.10;;;;;;5028409;28;20613;-77
2022/05/08 03:51:51;;;;;;;5.47;4.78;;;14.80;54.20;;;;;;5013215;28;20029;-78
2022/05/08 03:54:17;;;;;;;5.78;5.28;;;14.80;54.20;;;;;;5028632;28;20083;-76
2022/05/08 03:56:42;;;;;;;5.70;5.03;;;14.80;54.30;;;;;;5031027;28;20085;-76
2022/05/08 03:59:09;;;;;;;7.40;5.18;;;14.80;54.40;;;;;;5044214;28;20028;-75
2022/05/08 04:01:35;;;;;;;7.45;5.85;;;14.80;54.40;;;;;;5031660;28;20367;-76
2022/05/08 04:04:03;;;;;;;6.88;5.75;;;14.70;54.30;;;;;;5020303;28;20037;-75
2022/05/08 04:06:30;;;;;;;7.13;6.10;;;14.70;54.30;;;;;;5033119;28;20025;-76
2022/05/08 04:08:56;;;;;;;5.82;5.00;;;14.70;54.30;;;;;;5036780;28;20057;-76
2022/05/08 04:11:22;;;;;;;5.93;5.40;;;14.70;54.40;;;;;;5025478;28;20057;-76
2022/05/08 04:13:47;;;;;;;5.85;5.25;;;14.80;54.60;;;;;;5037961;28;20029;-76
2022/05/08 04:16:16;;;;;;;5.60;4.85;;;14.80;54.60;;;;;;5028834;28;20041;-76
2022/05/08 04:18:43;;;;;;;6.55;5.68;;;14.80;54.60;;;;;;5043518;28;20268;-76
2022/05/08 04:21:09;;;;;;;5.53;4.93;;;14.80;54.60;;;;;;5025041;28;20536;-76
2022/05/08 04:26:22;;;;;;;6.07;5.57;;;14.90;54.90;;;;;;5018452;28;20040;-75
2022/05/08 04:28:48;;;;;;;5.75;5.15;;;14.80;54.60;;;;;;5032050;28;20018;-76
2022/05/08 04:31:14;;;;;;;8.40;6.32;;;14.90;54.90;;;;;;5014038;28;20039;-76
2022/05/08 04:33:40;;;;;;;6.40;5.80;;;14.90;54.90;;;;;;5032140;28;20034;-76
2022/05/08 04:36:06;;;;;;;6.65;5.53;;;14.90;54.90;;;;;;5032649;28;20026;-76
2022/05/08 04:38:31;;;;;;;6.68;6.07;;;14.90;54.80;;;;;;5028896;28;20038;-76
2022/05/08 04:40:57;;;;;;;6.25;5.45;;;14.90;54.90;;;;;;5031042;28;20036;-76
2022/05/08 04:43:23;;;;;;;9.43;7.03;;;15.00;55.00;;;;;;5016695;28;20037;-76
2022/05/08 04:45:49;;;;;;;6.72;6.03;;;15.00;55.00;;;;;;5053045;28;20061;-76
2022/05/08 04:48:16;;;;;;;6.97;5.70;;;15.00;55.00;;;;;;5029112;28;20033;-76
2022/05/08 04:50:42;;;;;;;7.43;6.28;;;15.00;55.10;;;;;;5046163;28;20472;-76
2022/05/08 04:53:07;;;;;;;6.72;6.10;;;15.00;55.10;;;;;;4997377;28;20033;-76
2022/05/08 04:55:33;;;;;;;7.93;6.88;;;15.00;55.20;;;;;;5033127;28;20144;-76
2022/05/08 04:58:01;;;;;;;8.77;7.88;;;15.10;55.40;;;;;;5014208;28;20045;-76
2022/05/08 05:00:28;;;;;;;6.82;6.10;;;15.10;55.40;;;;;;5030664;28;20051;-76
2022/05/08 05:02:54;;;;;;;6.82;6.20;;;15.10;55.40;;;;;;5013383;28;20033;-76
2022/05/08 05:05:20;;;;;;;9.93;7.13;;;15.10;55.50;;;;;;5013263;28;20033;-76
2022/05/08 05:07:46;;;;;;;8.63;7.65;;;15.20;55.70;;;;;;5027386;28;20412;-77
2022/05/08 05:10:13;;;;;;;8.43;6.70;;;15.20;55.70;;;;;;5029807;28;20037;-77
2022/05/08 05:12:39;;;;;;;7.30;6.57;;;15.20;55.70;;;;;;5029849;28;20062;-77
2022/05/08 05:15:06;;;;;;;8.13;7.35;;;15.20;55.70;;;;;;5011502;28;20124;-76
2022/05/08 05:17:33;;;;;;;7.70;6.90;;;15.20;55.70;;;;;;5025252;28;20055;-77
2022/05/08 05:19:59;;;;;;;8.77;7.90;;;15.30;56.00;;;;;;5029206;28;20308;-77
2022/05/08 05:22:25;;;;;;;9.27;6.75;;;15.30;55.90;;;;;;5029728;28;20260;-76
2022/05/08 05:24:51;;;;;;;7.82;7.03;;;15.30;56.00;;;;;;5039215;28;20045;-76
2022/05/08 05:27:18;;;;;;;7.35;6.65;;;15.40;56.10;;;;;;5041294;28;20064;-76
2022/05/08 05:29:44;;;;;;;7.60;6.40;;;15.40;56.10;;;;;;5048135;28;20064;-77
2022/05/08 05:32:10;;;;;;;7.88;6.85;;;15.40;56.10;;;;;;5032755;28;20044;-77
2022/05/08 05:34:36;;;;;;;6.95;6.18;;;15.50;56.20;;;;;;5031370;28;20170;-76
2022/05/08 05:37:03;;;;;;;7.10;6.43;;;15.50;56.20;;;;;;5031059;28;20092;-76
2022/05/08 05:39:29;;;;;;;6.85;6.25;;;15.50;56.20;;;;;;5022759;28;20484;-76
2022/05/08 05:41:55;;;;;;;8.15;7.35;;;15.50;56.20;;;;;;4991924;28;20237;-77
2022/05/08 05:44:21;;;;;;;7.85;7.05;;;15.60;56.30;;;;;;4990402;28;20510;-76
2022/05/08 05:49:33;;;;;;;8.80;7.95;;;15.60;56.20;;;;;;4988287;28;20030;-77
2022/05/08 05:51:59;;;;;;;9.38;7.85;;;15.70;56.30;;;;;;5005940;28;20031;-76
2022/05/08 05:54:25;;;;;;;8.23;7.40;;;15.70;56.30;;;;;;5004445;28;20638;-81
2022/05/08 05:56:51;;;;;;;8.63;7.32;;;15.80;56.30;;;;;;4967819;28;20185;-82
2022/05/08 05:59:17;;;;;;;8.63;7.70;;;15.80;56.30;;;;;;4971341;28;20038;-82
2022/05/08 06:01:44;;;;;;;9.23;7.65;;;15.90;56.40;;;;;;4988008;28;20034;-79
2022/05/08 06:04:10;;;;;;;7.20;6.50;;;15.90;56.30;;;;;;4989891;28;20498;-80
2022/05/08 06:06:36;;;;;;;9.50;8.60;;;16.00;56.40;;;;;;4988097;28;20034;-77
2022/05/08 06:09:02;;;;;;;10.77;7.50;;;16.10;56.50;;;;;;4992343;28;20088;-79
2022/05/08 06:11:28;;;;;;;8.60;7.32;;;16.20;56.50;;;;;;4999634;28;20508;-78
2022/05/08 06:13:54;;;;;;;7.50;6.80;;;16.30;56.50;;;;;;4997426;28;20028;-78
2022/05/08 06:16:20;;;;;;;8.48;7.68;;;16.40;56.50;;;;;;4989166;28;20040;-77
2022/05/08 06:18:46;;;;;;;8.95;8.13;;;16.50;56.50;;;;;;4988105;28;20509;-77
2022/05/08 06:21:12;;;;;;;8.02;7.32;;;16.80;56.80;;;;;;4991241;28;20025;-77
2022/05/08 06:23:38;;;;;;;7.22;6.55;;;17.00;56.60;;;;;;5002309;28;20045;-78
2022/05/08 06:26:08;;;;;;;6.88;6.18;;;17.40;56.60;;;;;;5002909;28;20031;-78
2022/05/08 06:28:34;;;;;;;7.97;6.10;;;17.70;56.40;;;;;;4990453;28;20031;-77
2022/05/08 06:31:01;;;;;;;7.82;6.20;;;18.00;56.20;;;;;;4989192;28;20042;-77
2022/05/08 06:33:27;;;;;;;5.93;5.43;;;18.10;56.00;;;;;;5005256;28;20038;-77
2022/05/08 06:35:55;;;;;;;5.85;5.35;;;18.10;55.80;;;;;;4990318;28;20042;-78
2022/05/08 06:38:21;;;;;;;6.72;6.13;;;18.20;56.50;;;;;;4996254;28;20374;-75
2022/05/08 06:40:48;;;;;;;13.70;12.25;;;18.30;56.00;;;;;;5028009;28;20033;-79
2022/05/08 06:43:13;;;;;;;14.05;12.65;;;18.20;55.70;;;;;;5027263;28;20160;-78
2022/05/08 06:45:40;;;;;;;13.73;12.35;;;18.20;55.70;;;;;;5033651;28;20172;-78
2022/05/08 06:48:06;;;;;;;14.60;13.10;;;18.00;55.50;;;;;;5029048;28;20326;-78
2022/05/08 06:50:33;;;;;;;13.48;12.13;;;17.90;55.60;;;;;;5023325;28;20034;-78
2022/05/08 06:52:59;;;;;;;12.65;11.25;;;17.80;55.70;;;;;;5026917;28;20516;-78
2022/05/08 06:55:25;;;;;;;14.27;12.82;;;17.70;55.80;;;;;;5037613;28;20417;-77
2022/05/08 06:57:51;;;;;;;14.40;12.63;;;17.70;55.90;;;;;;5025747;28;20053;-78
2022/05/08 07:03:05;;;;;;;12.82;11.63;;;17.60;55.90;;;;;;5029086;28;20033;-78
2022/05/08 07:05:31;;;;;;;16.13;13.25;;;17.70;55.90;;;;;;5023824;28;20030;-78
2022/05/08 07:07:57;;;;;;;13.10;11.75;;;17.80;56.10;;;;;;5027503;28;20453;-77
2022/05/08 07:10:24;;;;;;;13.63;11.70;;;17.90;56.10;;;;;;5027807;28;20083;-78
2022/05/08 07:12:50;;;;;;;14.32;12.90;;;18.00;55.90;;;;;;5009466;28;20026;-78
2022/05/08 07:15:16;;;;;;;13.60;12.20;;;18.10;55.80;;;;;;5011216;28;20527;-78
2022/05/08 07:17:42;;;;;;;13.23;11.98;;;18.30;55.90;;;;;;5013881;28;20124;-78
2022/05/08 07:20:09;;;;;;;12.40;11.20;;;18.40;55.60;;;;;;5006819;28;20022;-78
2022/05/08 07:22:37;;;;;;;13.43;12.05;;;18.40;55.30;;;;;;5024457;28;20040;-78
2022/05/08 07:25:03;;;;;;;13.25;11.95;;;18.50;55.20;;;;;;5026402;28;20412;-76
2022/05/08 07:27:30;;;;;;;13.90;11.18;;;18.50;55.10;;;;;;5029477;28;20032;-78
2022/05/08 07:29:56;;;;;;;14.63;12.88;;;18.80;55.40;;;;;;5027085;28;20104;-77
2022/05/08 07:32:24;;;;;;;12.38;11.02;;;19.00;55.00;;;;;;5028139;28;20236;-78
2022/05/08 07:37:34;;;;;;;12.35;11.25;;;19.20;54.60;;;;;;5019517;28;20037;-78
2022/05/08 07:40:00;;;;;;;13.40;11.95;;;19.30;54.60;;;;;;5028404;28;20125;-78
2022/05/08 07:42:26;;;;;;;12.90;11.68;;;19.30;54.40;;;;;;5030723;28;20413;-77
2022/05/08 07:44:52;;;;;;;14.00;12.65;;;19.40;54.40;;;;;;5032526;28;20025;-78
2022/05/08 07:47:22;;;;;;;13.02;11.65;;;19.60;54.40;;;;;;5008180;28;20085;-78
2022/05/08 07:49:47;;;;;;;13.05;11.85;;;19.70;54.20;;;;;;4995792;28;20083;-78
2022/05/08 07:52:13;;;;;;;12.23;11.02;;;19.90;54.30;;;;;;5015457;28;20051;-78
2022/05/08 07:54:39;;;;;;;12.55;11.25;;;20.00;54.10;;;;;;5007984;28;20025;-78
2022/05/08 07:57:05;;;;;;;11.77;10.57;;;20.20;54.20;;;;;;5031943;28;20026;-78
2022/05/08 07:59:31;;;;;;;11.52;10.40;;;20.40;54.20;;;;;;5040077;28;20115;-77
2022/05/08 08:01:57;;;;;;;13.38;11.98;;;20.60;54.00;;;;;;5040922;28;20021;-78
2022/05/08 08:04:23;;;;;;;11.55;10.43;;;20.80;53.80;;;;;;5039238;28;20110;-79
2022/05/08 08:06:49;;;;;;;12.32;11.13;;;21.00;53.70;;;;;;5035512;28;20033;-79
2022/05/08 08:09:15;;;;;;;10.45;9.35;;;21.20;53.50;;;;;;5015253;28;20116;-79
2022/05/08 08:11:42;;;;;;;12.60;10.38;;;21.30;53.10;;;;;;5015789;28;20034;-78
2022/05/08 08:14:08;;;;;;;12.02;10.77;;;21.30;52.70;;;;;;5057281;28;20562;-78
2022/05/08 08:16:34;;;;;;;11.82;10.57;;;21.30;52.60;;;;;;5065197;28;20056;-78
2022/05/08 08:19:00;;;;;;;11.80;10.60;;;21.30;52.60;;;;;;5055649;28;20025;-80
2022/05/08 08:21:26;;;;;;;12.27;11.05;;;21.30;52.50;;;;;;5065123;28;20146;-79
2022/05/08 08:23:52;;;;;;;15.73;11.18;;;21.30;52.40;;;;;;5056920;28;20025;-79
2022/05/08 08:26:17;;;;;;;10.88;9.85;;;21.20;52.20;;;;;;5059329;28;20039;-78
2022/05/08 08:28:44;;;;;;;11.15;9.98;;;21.20;52.20;;;;;;5055962;28;20045;-80
2022/05/08 08:31:10;;;;;;;12.85;11.55;;;21.20;52.10;;;;;;5054603;28;20061;-79
2022/05/08 08:33:38;;;;;;;11.75;10.52;;;21.10;51.80;;;;;;5055256;28;20041;-78
2022/05/08 08:36:05;;;;;;;11.20;10.20;;;21.10;51.80;;;;;;5047923;28;20070;-79
2022/05/08 08:38:32;;;;;;;11.55;10.32;;;21.00;51.60;;;;;;5037658;28;20060;-78
2022/05/08 08:41:04;;;;;;;13.15;10.38;;;20.80;51.30;;;;;;5029990;28;20124;-77
2022/05/08 08:47:42;;;;;;;11.60;10.50;;;20.70;51.30;;;;;;5027009;28;20034;-77
2022/05/08 08:49:20;;;;;;;11.40;10.30;;;20.40;51.50;;;;;;5031382;28;20040;-77
2022/05/08 08:51:48;;;;;;;11.48;10.48;;;20.40;51.80;;;;;;5032444;28;20110;-76
2022/05/08 08:54:16;;;;;;;10.80;9.73;;;20.40;51.80;;;;;;5028027;28;20150;-76
2022/05/08 08:56:42;;;;;;;10.50;9.52;;;20.50;52.00;;;;;;5027909;28;20041;-75
2022/05/08 08:59:09;;;;;;;9.88;8.88;;;20.60;51.90;;;;;;5029824;28;20033;-75
2022/05/08 09:01:43;;;;;;;10.18;9.15;;;20.60;51.50;;;;;;5029031;28;20094;-75
2022/05/08 09:04:09;;;;;;;8.52;7.68;;;20.80;51.60;;;;;;5010628;28;20030;-77
2022/05/08 09:06:40;;;;;;;9.30;8.20;;;20.90;51.60;;;;;;5028329;28;20025;-78
2022/05/08 09:09:26;;;;;;;12.55;9.00;;;21.00;51.60;;;;;;5031296;28;20064;-78
2022/05/08 09:11:54;;;;;;;8.88;7.97;;;21.10;51.30;;;;;;5025701;28;20056;-80
2022/05/08 09:14:30;;;;;;;8.27;7.38;;;21.10;51.20;;;;;;5027836;28;20034;-77
2022/05/08 09:16:56;;;;;;;9.43;7.72;;;21.20;51.10;;;;;;5030098;28;20041;-77
2022/05/08 09:19:38;;;;;;;8.77;7.65;;;21.20;51.10;;;;;;5021808;28;20041;-77
2022/05/08 09:22:06;;;;;;;8.18;7.00;;;21.20;50.90;;;;;;5016717;28;20047;-79
2022/05/08 09:24:33;;;;;;;7.80;7.07;;;21.30;51.10;;;;;;5027489;28;20080;-78
2022/05/08 09:27:12;;;;;;;8.23;7.38;;;21.30;51.00;;;;;;5059036;28;20092;-83
2022/05/08 09:29:39;;;;;;;8.68;7.68;;;21.40;50.90;;;;;;5036311;28;20014;-79
2022/05/08 09:32:05;;;;;;;8.75;7.85;;;21.40;50.80;;;;;;5052908;28;20037;-80
2022/05/08 09:34:55;;;;;;;9.38;7.95;;;21.50;50.90;;;;;;5040397;28;20033;-82
2022/05/08 09:37:21;;;;;;;9.13;7.60;;;21.50;50.70;;;;;;5042025;28;20037;-81
2022/05/08 09:39:47;;;;;;;8.40;7.60;;;21.60;50.90;;;;;;5038404;28;20862;-81
2022/05/08 09:42:38;;;;;;;15.50;8.77;;;21.70;50.90;;;;;;5042140;28;20092;-81
2022/05/08 09:45:08;;;;;;;8.63;7.85;;;21.70;50.50;;;;;;5037000;28;20044;-80
2022/05/08 09:47:46;;;;;;;9.05;8.07;;;21.80;51.10;;;;;;5036226;28;20073;-77
2022/05/08 09:50:14;;;;;;;8.77;7.88;;;21.90;50.60;;;;;;5014711;28;20025;-78
2022/05/08 09:52:41;;;;;;;8.73;7.82;;;21.90;50.50;;;;;;5029371;28;20724;-78
2022/05/08 09:55:10;;;;;;;8.25;7.45;;;21.90;50.50;;;;;;5028688;28;20049;-78
2022/05/08 09:57:39;;;;;;;10.13;7.68;;;21.80;50.20;;;;;;5016643;28;20087;-78
2022/05/08 10:00:06;;;;;;;8.32;7.53;;;21.80;50.20;;;;;;5032182;28;20025;-79
2022/05/08 10:02:40;;;;;;;7.35;6.75;;;21.90;50.40;;;;;;5023741;28;20072;-78
2022/05/08 10:05:07;;;;;;;8.52;7.35;;;22.00;50.30;;;;;;5035498;28;20037;-78
2022/05/08 10:07:36;;;;;;;7.80;7.00;;;22.00;50.10;;;;;;5025796;28;20068;-78
2022/05/08 10:15:34;;;;;;;6.57;5.70;;;22.30;49.70;;;;;;5030752;28;20314;-75
2022/05/08 10:18:21;;;;;;;6.38;5.78;;;22.40;49.50;;;;;;5034834;28;20580;-76
2022/05/08 10:21:04;;;;;;;7.13;5.22;;;22.50;49.20;;;;;;5032845;28;20057;-76
2022/05/08 10:23:47;;;;;;;6.10;5.00;;;22.50;48.90;;;;;;5042135;28;20499;-77
2022/05/08 10:26:21;;;;;;;;;;;22.60;48.90;;;;;;5013716;28;20030;-77
2022/05/08 10:29:09;;;;;;;6.18;4.90;;;22.70;49.10;;;;;;5014411;28;19913;-77
2022/05/08 10:31:45;;;;;;;7.38;5.38;;;22.80;49.10;;;;;;5024775;28;20264;-77
2022/05/08 10:34:13;;;;;;;6.53;4.88;;;22.80;48.90;;;;;;5013808;28;20061;-78
2022/05/08 10:36:42;;;;;;;5.28;4.78;;;22.90;49.00;;;;;;5028074;28;20033;-77
2022/05/08 10:39:47;;;;;;;5.53;4.72;;;23.00;49.00;;;;;;5033198;28;20060;-78
2022/05/08 10:42:28;;;;;;;6.25;4.70;;;23.10;48.70;;;;;;5029733;28;20068;-79
2022/05/08 10:44:57;;;;;;;5.28;4.78;;;23.20;48.60;;;;;;5032530;28;20239;-79
2022/05/08 10:47:33;;;;;;;8.18;5.07;;;23.20;48.50;;;;;;5029939;28;20101;-79
2022/05/08 10:49:59;;;;;;;6.57;4.45;;;23.40;48.50;;;;;;5029635;28;20033;-77
2022/05/08 10:52:25;;;;;;;5.05;4.20;;;23.50;48.50;;;;;;5029410;28;20025;-78
2022/05/08 10:55:02;;;;;;;3.95;3.65;;;23.60;48.40;;;;;;5026418;28;20079;-79
2022/05/08 10:57:33;;;;;;;6.45;5.18;;;23.60;47.90;;;;;;5027933;28;20033;-78
2022/05/08 10:59:59;;;;;;;4.95;4.38;;;23.70;47.90;;;;;;5013090;28;20032;-77
2022/05/08 11:02:38;;;;;;;5.78;4.30;;;23.70;47.70;;;;;;5047504;28;20055;-78
2022/05/08 11:05:05;;;;;;;6.43;4.82;;;23.70;47.40;;;;;;5032489;28;20037;-78
2022/05/08 11:07:31;;;;;;;7.70;4.90;;;23.70;47.60;;;;;;5028371;28;20030;-77
2022/05/08 11:10:00;;;;;;;6.25;4.63;;;23.70;48.10;;;;;;5029586;28;20585;-78
2022/05/08 11:12:26;;;;;;;5.47;4.78;;;23.60;47.40;;;;;;5010328;28;20064;-76
2022/05/08 11:15:09;;;;;;;5.15;3.85;;;23.60;47.40;;;;;;5028781;28;20039;-76
2022/05/08 11:17:34;;;;;;;4.40;4.00;;;23.70;47.30;;;;;;5022585;28;20041;-77
2022/05/08 11:20:01;;;;;;;2.45;2.25;;;23.80;47.50;;;;;;5027851;28;20785;-76
2022/05/08 11:22:27;;;;;;;3.65;3.20;;;23.90;47.30;;;;;;5020702;28;20785;-77
2022/05/08 11:25:10;;;;;;;4.90;3.30;;;24.00;47.10;;;;;;5026865;28;20031;-75
2022/05/08 11:27:36;;;;;;;3.90;3.40;;;24.10;47.30;;;;;;5025526;28;20065;-74
2022/05/08 11:30:05;;;;;;;4.18;2.17;;;24.20;46.90;;;;;;5011709;28;20030;-76
2022/05/08 11:38:17;;;;;;;2.83;2.30;;;24.50;46.20;;;;;;5025089;28;20102;-77
2022/05/08 11:40:43;;;;;;;3.20;2.22;;;24.60;45.90;;;;;;5028581;28;20025;-77
2022/05/08 11:43:30;;;;;;;5.22;3.85;;;24.70;45.90;;;;;;5026160;28;20037;-77
2022/05/08 11:45:59;;;;;;;3.50;3.20;;;24.80;45.90;;;;;;5042872;28;20033;-77
2022/05/08 11:48:36;;;;;;;3.83;2.58;;;24.80;46.40;;;;;;5030384;28;20033;-77
2022/05/08 11:51:03;;;;;;;2.17;1.98;;;24.70;45.50;;;;;;5009626;28;20044;-79
2022/05/08 11:53:38;;;;;;;3.38;2.20;;;24.70;45.50;;;;;;5009577;28;20127;-79
2022/05/08 11:56:32;;;;;;;3.30;2.22;;;24.80;45.10;;;;;;5022156;28;20101;-79
2022/05/08 11:59:03;;;;;;;3.60;1.80;;;24.90;44.90;;;;;;5027690;28;20041;-79
2022/05/08 12:01:34;;;;;;;2.75;2.00;;;25.10;45.10;;;;;;5040398;28;20022;-77
2022/05/08 12:04:28;;;;;;;3.33;1.50;;;25.20;44.70;;;;;;5000404;28;20060;-76
2022/05/08 12:06:59;;;;;;;3.15;1.85;;;25.30;44.10;;;;;;5024618;28;20041;-76
2022/05/08 12:09:30;;;;;;;1.70;1.40;;;25.50;44.20;;;;;;5026519;28;20120;-78
2022/05/08 12:11:56;;;;;;;2.85;1.70;;;25.60;44.00;;;;;;5025230;28;20033;-77
2022/05/08 12:14:32;;;;;;;4.15;2.17;;;25.80;43.90;;;;;;5025614;28;20032;-78
2022/05/08 12:17:02;;;;;;;2.60;1.80;;;25.90;43.40;;;;;;5009198;28;20046;-78
2022/05/08 12:19:29;;;;;;;2.10;1.90;;;26.10;43.40;;;;;;5020937;28;20036;-77
2022/05/08 12:21:55;;;;;;;2.65;1.80;;;26.30;43.30;;;;;;5029764;28;20029;-78
2022/05/08 12:24:22;;;;;;;2.22;1.60;;;26.40;42.90;;;;;;5024812;28;20374;-78
2022/05/08 12:26:49;;;;;;;4.60;1.30;;;26.50;42.60;;;;;;5025482;28;20120;-80
2022/05/08 12:29:22;;;;;;;2.42;1.60;;;26.70;42.50;;;;;;5007075;28;20548;-79
2022/05/08 12:31:51;;;;;;;1.77;1.67;;;26.80;42.20;;;;;;5008899;28;20112;-79
2022/05/08 12:34:18;;;;;;;3.38;1.88;;;26.90;42.00;;;;;;5027513;28;20021;-80
2022/05/08 12:36:44;;;;;;;2.58;1.60;;;27.00;42.00;;;;;;4988815;28;20046;-81
2022/05/08 12:39:11;;;;;;;2.97;1.95;;;26.90;41.80;;;;;;5018551;28;20060;-77
2022/05/08 12:41:38;;;;;;;4.25;1.77;;;26.80;41.70;;;;;;5039793;28;20026;-79
2022/05/08 12:44:04;;;;;;;2.65;1.58;;;26.70;41.60;;;;;;5029301;28;20053;-75
2022/05/08 12:46:31;;;;;;;1.30;1.20;;;26.60;41.60;;;;;;5012385;28;20030;-77
2022/05/08 12:49:02;;;;;;;3.28;1.35;;;26.60;41.60;;;;;;5032757;28;20119;-77
2022/05/08 12:51:38;;;;;;;2.08;1.20;;;26.60;41.50;;;;;;5035964;28;20033;-79
2022/05/08 12:54:04;;;;;;;3.30;1.33;;;26.80;41.40;;;;;;5029864;28;20029;-78
2022/05/08 12:56:32;;;;;;;3.15;1.23;;;26.90;41.40;;;;;;5030864;28;20088;-79
2022/05/08 13:01:43;;;;;;;8.05;1.95;;;27.20;40.70;;;;;;5030439;28;20476;-77
2022/05/08 13:04:09;;;;;;;4.05;1.63;;;27.40;40.50;;;;;;5029964;28;20033;-76
2022/05/08 13:06:35;;;;;;;8.20;1.73;;;27.40;40.20;;;;;;5028811;28;20084;-77
2022/05/08 13:09:03;;;;;;;1.75;1.10;;;27.40;40.20;;;;;;5011698;28;20021;-77
2022/05/08 13:11:30;;;;;;;2.47;1.50;;;27.50;40.50;;;;;;5006872;28;20026;-77
2022/05/08 13:13:55;;;;;;;2.80;1.30;;;27.50;40.60;;;;;;5010517;28;20029;-85
2022/05/08 13:16:22;;;;;;;1.95;1.10;;;27.60;40.80;;;;;;5027201;28;20088;-83
2022/05/08 13:18:49;;;;;;;2.65;1.30;;;27.80;40.80;;;;;;5011524;28;20477;-81
2022/05/08 13:21:16;;;;;;;1.10;0.90;;;27.90;40.80;;;;;;5017029;28;20163;-81
2022/05/08 13:23:42;;;;;;;2.80;1.30;;;28.20;40.80;;;;;;5020726;28;20034;-84